createdAt,value
2022-09-12T00:00:15.961Z,41.63
2022-09-12T00:02:42.889Z,42.63
2022-09-12T00:05:09.954Z,61.23
2022-09-12T00:07:36.876Z,39.17
2022-09-12T00:10:04.034Z,53.00
2022-09-12T00:12:31.073Z,55.77
2022-09-12T00:14:57.947Z,43.47
2022-09-12T00:17:24.909Z,49.93
2022-09-12T00:19:51.833Z,55.50
2022-09-12T00:22:18.813Z,53.03
2022-09-12T00:24:45.804Z,41.03
2022-09-12T00:27:12.677Z,56.00
2022-09-12T00:29:39.599Z,52.10
2022-09-12T00:32:06.913Z,64.90
2022-09-12T00:34:33.882Z,57.70
2022-09-12T00:37:00.886Z,61.63
2022-09-12T00:39:27.878Z,56.57
2022-09-12T00:41:54.823Z,53.60
2022-09-12T00:44:44.093Z,55.80
2022-09-12T00:47:24.916Z,56.07
2022-09-12T00:50:09.968Z,50.07
2022-09-12T00:52:50.886Z,54.63
2022-09-12T00:55:35.836Z,51.40
2022-09-12T00:58:13.475Z,52.27
2022-09-12T01:00:40.901Z,60.33
2022-09-12T01:03:13.236Z,58.73
2022-09-12T01:05:44.978Z,53.90
2022-09-12T01:08:12.489Z,49.53
2022-09-12T01:10:41.473Z,48.37
2022-09-12T01:13:09.838Z,51.00
2022-09-12T01:15:40.301Z,45.03
2022-09-12T01:18:31.022Z,45.50
2022-09-12T01:21:08.082Z,51.37
2022-09-12T01:24:14.197Z,53.37
2022-09-12T01:27:14.789Z,50.57
2022-09-12T01:30:05.519Z,42.90
2022-09-12T01:33:27.361Z,49.27
2022-09-12T01:36:29.912Z,44.60
2022-09-12T01:39:01.574Z,46.10
2022-09-12T01:42:14.386Z,62.27
2022-09-12T01:44:55.068Z,119.00
2022-09-12T01:47:30.943Z,102.27
2022-09-12T01:50:08.736Z,90.40
2022-09-12T01:52:55.812Z,59.67
2022-09-12T01:55:31.103Z,53.80
2022-09-12T01:58:05.253Z,51.80
2022-09-12T02:00:35.709Z,63.63
2022-09-12T02:03:12.659Z,55.27
2022-09-12T02:05:45.063Z,53.00
2022-09-12T02:08:18.042Z,51.10
2022-09-12T02:11:06.819Z,51.73
2022-09-12T02:13:48.693Z,54.60
2022-09-12T02:16:44.289Z,60.20
2022-09-12T02:19:17.686Z,45.47
2022-09-12T02:21:50.808Z,48.13
2022-09-12T02:24:18.804Z,44.57
2022-09-12T02:26:56.867Z,48.27
2022-09-12T02:29:23.923Z,39.27
2022-09-12T02:32:02.544Z,48.40
2022-09-12T02:35:07.907Z,45.30
2022-09-12T02:38:09.842Z,41.47
2022-09-12T02:40:42.403Z,42.17
2022-09-12T02:43:09.669Z,46.37
2022-09-12T02:45:37.245Z,49.70
2022-09-12T02:48:13.450Z,45.60
2022-09-12T02:50:41.233Z,45.27
2022-09-12T02:53:11.751Z,45.00
2022-09-12T02:55:41.359Z,42.93
2022-09-12T02:58:21.261Z,47.90
2022-09-12T03:01:42.514Z,43.87
2022-09-12T03:04:57.859Z,42.07
2022-09-12T03:07:46.217Z,36.83
2022-09-12T03:23:02.437Z,29.80
2022-09-12T03:28:23.705Z,28.70
2022-09-12T03:30:53.968Z,27.90
2022-09-12T03:33:25.134Z,26.33
2022-09-12T03:35:54.894Z,25.03
2022-09-12T03:38:21.810Z,28.27
2022-09-12T03:40:54.808Z,31.27
2022-09-12T03:43:21.981Z,27.23
2022-09-12T03:45:54.580Z,27.70
2022-09-12T03:48:21.702Z,37.10
2022-09-12T03:50:48.601Z,33.00
2022-09-12T03:53:17.747Z,36.67
2022-09-12T03:55:49.554Z,39.30
2022-09-12T03:58:16.437Z,42.50
2022-09-12T04:00:44.535Z,41.07
2022-09-12T04:03:11.481Z,43.50
2022-09-12T04:05:38.493Z,43.93
2022-09-12T04:08:09.614Z,44.53
2022-09-12T04:10:36.461Z,46.40
2022-09-12T04:13:06.071Z,50.20
2022-09-12T04:15:32.966Z,44.67
2022-09-12T04:18:05.024Z,47.33
2022-09-12T04:20:35.704Z,47.77
2022-09-12T04:23:02.526Z,50.73
2022-09-12T04:25:31.438Z,45.83
2022-09-12T04:27:58.314Z,46.97
2022-09-12T04:30:25.354Z,45.57
2022-09-12T04:32:52.426Z,48.33
2022-09-12T04:35:19.371Z,49.37
2022-09-12T04:37:46.371Z,43.50
2022-09-12T04:40:13.265Z,44.10
2022-09-12T04:42:40.157Z,51.20
2022-09-12T04:45:07.918Z,51.50
2022-09-12T04:47:35.275Z,44.90
2022-09-12T04:50:02.228Z,40.87
2022-09-12T04:52:29.148Z,46.77
2022-09-12T04:54:56.007Z,45.27
2022-09-12T04:57:24.953Z,45.20
2022-09-12T04:59:51.832Z,45.00
2022-09-12T05:02:18.703Z,50.20
2022-09-12T05:04:46.979Z,43.07
2022-09-12T05:07:13.863Z,42.40
2022-09-12T05:09:41.562Z,39.10
2022-09-12T05:12:09.515Z,48.23
2022-09-12T05:14:39.129Z,50.53
2022-09-12T05:17:07.651Z,41.03
2022-09-12T05:19:34.868Z,44.37
2022-09-12T05:22:01.798Z,37.87
2022-09-12T05:24:28.981Z,45.47
2022-09-12T05:26:56.338Z,39.10
2022-09-12T05:29:25.231Z,42.83
2022-09-12T05:31:53.045Z,45.60
2022-09-12T05:34:21.461Z,49.70
2022-09-12T05:36:49.230Z,44.77
2022-09-12T05:39:16.367Z,39.27
2022-09-12T05:41:43.273Z,45.23
2022-09-12T05:44:14.334Z,36.30
2022-09-12T05:46:43.953Z,41.83
2022-09-12T05:49:13.029Z,30.00
2022-09-12T05:51:42.290Z,26.20
2022-09-12T05:54:12.176Z,27.33
2022-09-12T05:56:41.505Z,20.40
2022-09-12T05:59:13.359Z,17.70
2022-09-12T06:01:43.672Z,17.03
2022-09-12T06:04:11.119Z,16.03
2022-09-12T06:06:45.147Z,21.03
2022-09-12T06:09:13.782Z,12.67
2022-09-12T06:11:41.164Z,17.53
2022-09-12T06:14:10.108Z,18.67
2022-09-12T06:16:37.894Z,11.20
2022-09-12T06:19:16.843Z,13.20
2022-09-12T06:21:44.832Z,12.77
2022-09-12T06:24:11.974Z,11.53
2022-09-12T06:26:38.971Z,12.43
2022-09-12T06:29:05.886Z,10.77
2022-09-12T06:31:37.465Z,11.00
2022-09-12T06:34:07.192Z,13.80
2022-09-12T06:36:38.649Z,10.63
2022-09-12T06:39:09.066Z,18.20
2022-09-12T06:41:36.981Z,17.80
2022-09-12T06:44:07.042Z,10.07
2022-09-12T06:46:34.230Z,8.53
2022-09-12T06:49:02.002Z,9.20
2022-09-12T06:51:29.575Z,9.10
2022-09-12T06:53:57.652Z,9.23
2022-09-12T06:56:27.185Z,9.07
2022-09-12T06:58:56.758Z,7.83
2022-09-12T07:01:29.521Z,6.77
2022-09-12T07:04:01.128Z,12.80
2022-09-12T07:06:36.573Z,9.00
2022-09-12T07:09:05.081Z,7.57
2022-09-12T07:11:34.087Z,7.37
2022-09-12T07:14:02.851Z,9.60
2022-09-12T07:16:30.841Z,7.40
2022-09-12T07:19:00.618Z,7.37
2022-09-12T07:21:28.196Z,6.90
2022-09-12T07:23:57.074Z,7.87
2022-09-12T07:26:25.370Z,6.97
2022-09-12T07:29:03.966Z,5.90
2022-09-12T07:31:40.298Z,6.70
2022-09-12T07:34:07.439Z,7.43
2022-09-12T07:36:34.732Z,7.97
2022-09-12T07:39:01.740Z,7.17
2022-09-12T07:41:30.671Z,7.47
2022-09-12T07:43:59.720Z,6.83
2022-09-12T07:46:29.613Z,6.70
2022-09-12T07:48:58.284Z,6.90
2022-09-12T07:51:26.949Z,7.00
2022-09-12T07:53:53.998Z,9.50
2022-09-12T07:56:22.615Z,7.00
2022-09-12T07:58:52.028Z,9.13
2022-09-12T08:01:21.070Z,8.10
2022-09-12T08:03:50.022Z,10.37
2022-09-12T08:06:20.378Z,8.40
2022-09-12T08:08:48.979Z,9.67
2022-09-12T08:11:18.024Z,11.87
2022-09-12T08:13:46.104Z,9.13
2022-09-12T08:16:15.896Z,6.73
2022-09-12T08:18:42.841Z,11.97
2022-09-12T08:21:18.214Z,6.73
2022-09-12T08:23:46.025Z,7.43
2022-09-12T08:26:13.573Z,11.67
2022-09-12T08:28:45.609Z,9.63
2022-09-12T08:31:15.735Z,7.70
2022-09-12T08:33:43.699Z,7.87
2022-09-12T08:36:13.266Z,9.10
2022-09-12T08:38:43.310Z,7.73
2022-09-12T08:41:28.320Z,8.20
2022-09-12T08:44:37.229Z,9.93
2022-09-12T08:47:31.588Z,7.07
2022-09-12T08:50:20.909Z,6.27
2022-09-12T08:53:13.241Z,9.23
2022-09-12T08:56:12.812Z,8.90
2022-09-12T08:58:45.312Z,7.80
2022-09-12T09:01:40.804Z,7.70
2022-09-12T09:04:50.867Z,8.73
2022-09-12T09:08:18.926Z,11.30
2022-09-12T09:10:53.993Z,6.83
2022-09-12T09:14:15.805Z,8.67
2022-09-12T09:16:45.292Z,13.40
2022-09-12T09:19:18.841Z,9.87
2022-09-12T09:21:55.036Z,8.10
2022-09-12T09:24:28.326Z,7.33
2022-09-12T09:27:40.032Z,10.60
2022-09-12T09:30:19.837Z,7.33
2022-09-12T09:32:51.728Z,8.33
2022-09-12T09:35:46.138Z,9.87
2022-09-12T09:38:49.789Z,11.10
2022-09-12T09:41:58.271Z,6.47
2022-09-12T09:44:28.557Z,6.50
2022-09-12T09:46:58.923Z,7.10
2022-09-12T09:49:33.709Z,6.47
2022-09-12T09:52:02.212Z,15.70
2022-09-12T09:54:57.452Z,6.20
2022-09-12T09:57:52.640Z,6.73
2022-09-12T10:00:56.132Z,7.87
2022-09-12T10:03:50.879Z,6.20
2022-09-12T10:06:36.357Z,6.90
2022-09-12T10:09:19.419Z,6.47
2022-09-12T10:11:47.770Z,7.37
2022-09-12T10:14:46.280Z,5.80
2022-09-12T10:17:40.349Z,5.27
2022-09-12T10:20:53.195Z,5.90
2022-09-12T10:23:37.889Z,5.93
2022-09-12T10:26:11.284Z,5.47
2022-09-12T10:28:41.339Z,5.40
2022-09-12T10:31:10.890Z,5.83
2022-09-12T10:33:52.968Z,5.07
2022-09-12T10:36:21.071Z,4.33
2022-09-12T10:39:01.680Z,3.70
2022-09-12T10:41:37.455Z,10.10
2022-09-12T10:44:13.132Z,6.50
2022-09-12T10:46:40.447Z,9.20
2022-09-12T10:49:31.296Z,5.33
2022-09-12T10:52:17.748Z,4.55
2022-09-12T10:54:45.248Z,3.83
2022-09-12T10:57:36.638Z,3.15
2022-09-12T11:00:17.675Z,8.88
2022-09-12T11:03:22.393Z,3.50
2022-09-12T11:05:53.672Z,3.50
2022-09-12T11:08:46.586Z,3.40
2022-09-12T11:11:42.897Z,3.00
2022-09-12T11:14:51.115Z,2.42
2022-09-12T11:17:52.051Z,4.03
2022-09-12T11:20:52.722Z,12.07
2022-09-12T11:24:07.234Z,6.13
2022-09-12T11:27:23.639Z,4.13
2022-09-12T11:29:59.281Z,7.00
2022-09-12T11:33:17.065Z,3.90
2022-09-12T11:35:54.956Z,2.60
2022-09-12T11:38:49.759Z,3.13
2022-09-12T11:41:31.636Z,2.67
2022-09-12T11:44:37.668Z,2.33
2022-09-12T11:47:13.582Z,2.60
2022-09-12T11:49:48.936Z,3.38
2022-09-12T11:52:28.077Z,3.58
2022-09-12T11:55:28.462Z,2.03
2022-09-12T11:57:58.653Z,3.05
2022-09-12T12:00:39.168Z,2.15
2022-09-12T12:03:43.202Z,1.80
2022-09-12T12:06:30.649Z,1.92
2022-09-12T12:08:58.212Z,2.67
2022-09-12T12:11:32.533Z,2.00
2022-09-12T12:14:15.897Z,1.95
2022-09-12T12:16:42.918Z,2.20
2022-09-12T12:19:37.805Z,2.65
2022-09-12T12:22:25.543Z,1.90
2022-09-12T12:25:29.936Z,4.30
2022-09-12T12:28:01.486Z,2.17
2022-09-12T12:31:15.160Z,7.40
2022-09-12T12:34:19.976Z,2.15
2022-09-12T12:36:50.257Z,1.45
2022-09-12T12:39:56.435Z,1.30
2022-09-12T12:43:02.704Z,1.70
2022-09-12T12:45:59.262Z,3.67
2022-09-12T12:48:26.647Z,1.67
2022-09-12T12:50:53.587Z,1.92
2022-09-12T12:53:25.786Z,1.50
2022-09-12T12:55:55.464Z,2.00
2022-09-12T12:58:43.227Z,1.58
2022-09-12T13:01:19.932Z,1.65
2022-09-12T13:04:16.036Z,6.53
2022-09-12T13:07:08.467Z,1.95
2022-09-12T13:09:48.258Z,1.98
2022-09-12T13:12:31.462Z,2.10
2022-09-12T13:15:00.047Z,2.38
2022-09-12T13:17:44.397Z,7.30
2022-09-12T13:20:30.085Z,2.05
2022-09-12T13:22:58.431Z,2.33
2022-09-12T13:25:32.531Z,2.00
2022-09-12T13:28:16.853Z,2.38
2022-09-12T13:31:08.700Z,2.30
2022-09-12T13:33:59.102Z,1.80
2022-09-12T13:37:17.093Z,1.92
2022-09-12T13:40:11.515Z,6.22
2022-09-12T13:42:47.911Z,2.63
2022-09-12T13:45:27.024Z,2.00
2022-09-12T13:48:03.349Z,2.27
2022-09-12T13:50:42.900Z,2.17
2022-09-12T13:53:17.150Z,2.57
2022-09-12T13:55:48.440Z,1.90
2022-09-12T13:58:28.227Z,2.20
2022-09-12T14:01:15.923Z,2.17
2022-09-12T14:04:16.503Z,3.37
2022-09-12T14:06:53.570Z,1.73
2022-09-12T14:09:39.663Z,5.93
2022-09-12T14:12:35.558Z,1.80
2022-09-12T14:15:02.877Z,1.97
2022-09-12T14:17:39.518Z,2.23
2022-09-12T14:20:14.171Z,13.73
2022-09-12T14:22:41.878Z,2.10
2022-09-12T14:25:19.631Z,5.10
2022-09-12T14:27:55.683Z,8.00
2022-09-12T14:30:30.770Z,13.50
2022-09-12T14:33:18.314Z,2.50
2022-09-12T14:35:51.230Z,2.17
2022-09-12T14:38:31.834Z,3.00
2022-09-12T14:41:08.864Z,2.10
2022-09-12T14:43:38.895Z,3.13
2022-09-12T14:46:20.088Z,2.70
2022-09-12T14:48:52.098Z,2.43
2022-09-12T14:51:25.133Z,2.50
2022-09-12T14:53:52.228Z,2.90
2022-09-12T14:56:22.523Z,4.50
2022-09-12T14:58:50.658Z,2.90
2022-09-12T15:01:25.174Z,3.00
2022-09-12T15:03:54.771Z,2.83
2022-09-12T15:06:36.808Z,4.43
2022-09-12T15:09:08.605Z,2.97
2022-09-12T15:11:35.747Z,3.03
2022-09-12T15:14:17.978Z,4.20
2022-09-12T15:16:45.336Z,3.30
2022-09-12T15:19:12.469Z,2.47
2022-09-12T15:21:39.510Z,3.20
2022-09-12T15:24:07.656Z,3.13
2022-09-12T15:26:37.420Z,2.87
2022-09-12T15:29:05.785Z,3.30
2022-09-12T15:31:33.365Z,2.80
2022-09-12T15:34:02.334Z,3.00
2022-09-12T15:36:29.670Z,1.97
2022-09-12T15:38:56.717Z,2.50
2022-09-12T15:41:37.107Z,4.70
2022-09-12T15:44:11.401Z,3.53
2022-09-12T15:46:38.694Z,3.00
2022-09-12T15:49:05.632Z,2.53
2022-09-12T15:51:33.080Z,3.27
2022-09-12T15:54:02.410Z,3.40
2022-09-12T15:56:29.240Z,4.07
2022-09-12T15:59:00.188Z,3.00
2022-09-12T16:01:28.664Z,3.40
2022-09-12T16:03:56.116Z,3.70
2022-09-12T16:06:24.068Z,2.77
2022-09-12T16:08:51.031Z,3.00
2022-09-12T16:11:26.185Z,2.80
2022-09-12T16:13:55.042Z,2.70
2022-09-12T16:16:22.122Z,2.53
2022-09-12T16:18:49.251Z,2.53
2022-09-12T16:21:16.293Z,3.23
2022-09-12T16:23:44.642Z,3.30
2022-09-12T16:26:11.541Z,4.27
2022-09-12T16:28:38.920Z,3.27
2022-09-12T16:31:07.966Z,2.97
2022-09-12T16:33:35.159Z,3.20
2022-09-12T16:36:10.436Z,3.03
2022-09-12T16:38:49.252Z,3.37
2022-09-12T16:41:17.980Z,4.43
2022-09-12T16:43:45.671Z,2.83
2022-09-12T16:46:25.169Z,4.47
2022-09-12T16:48:54.876Z,5.30
2022-09-12T16:51:38.437Z,3.63
2022-09-12T16:54:05.337Z,4.33
2022-09-12T16:56:32.267Z,4.17
2022-09-12T16:58:59.109Z,4.33
2022-09-12T17:01:26.894Z,3.87
2022-09-12T17:03:56.327Z,3.73
2022-09-12T17:06:23.995Z,4.63
2022-09-12T17:08:53.105Z,3.73
2022-09-12T17:11:30.930Z,3.00
2022-09-12T17:14:04.834Z,5.30
2022-09-12T17:16:33.664Z,3.20
2022-09-12T17:19:00.829Z,3.30
2022-09-12T17:21:27.866Z,3.57
2022-09-12T17:23:54.961Z,3.03
2022-09-12T17:26:22.436Z,6.40
2022-09-12T17:28:49.770Z,3.20
2022-09-12T17:31:17.454Z,3.00
2022-09-12T17:33:44.919Z,3.73
2022-09-12T17:36:15.525Z,3.13
2022-09-12T17:38:44.461Z,2.73
2022-09-12T17:41:19.804Z,3.97
2022-09-12T17:43:51.135Z,3.40
2022-09-12T17:46:19.576Z,3.20
2022-09-12T17:48:52.645Z,4.20
2022-09-12T17:51:20.611Z,3.47
2022-09-12T17:53:47.993Z,4.93
2022-09-12T17:56:15.787Z,5.43
2022-09-12T17:58:42.758Z,4.23
2022-09-12T18:01:33.985Z,5.00
2022-09-12T18:04:01.713Z,4.40
2022-09-12T18:06:29.825Z,5.07
2022-09-12T18:09:00.782Z,4.87
2022-09-12T18:11:27.944Z,6.00
2022-09-12T18:13:54.972Z,13.53
2022-09-12T18:16:22.135Z,15.60
2022-09-12T18:18:51.397Z,24.43
2022-09-12T18:21:19.995Z,5.50
2022-09-12T18:23:47.777Z,4.77
2022-09-12T18:26:15.098Z,4.80
2022-09-12T18:28:44.398Z,4.60
2022-09-12T18:31:15.206Z,4.93
2022-09-12T18:33:43.188Z,5.90
2022-09-12T18:36:12.891Z,7.40
2022-09-12T18:38:40.969Z,4.77
2022-09-12T18:41:12.848Z,4.53
2022-09-12T18:43:39.929Z,8.23
2022-09-12T18:46:18.821Z,6.03
2022-09-12T18:48:47.196Z,8.00
2022-09-12T18:51:19.469Z,5.77
2022-09-12T18:53:57.337Z,4.23
2022-09-12T18:56:27.022Z,4.10
2022-09-12T18:58:56.133Z,8.30
2022-09-12T19:01:31.176Z,5.50
2022-09-12T19:03:58.325Z,6.67
2022-09-12T19:06:27.780Z,5.13
2022-09-12T19:08:56.621Z,8.40
2022-09-12T19:11:25.431Z,6.77
2022-09-12T19:13:53.744Z,5.30
2022-09-12T19:16:23.266Z,6.90
2022-09-12T19:18:52.684Z,5.87
2022-09-12T19:21:25.232Z,5.50
2022-09-12T19:23:53.808Z,6.00
2022-09-12T19:26:21.128Z,4.40
2022-09-12T19:28:48.657Z,5.53
2022-09-12T19:31:22.980Z,5.37
2022-09-12T19:33:54.352Z,6.80
2022-09-12T19:36:43.757Z,9.10
2022-09-12T19:39:09.861Z,7.90
2022-09-12T19:41:37.535Z,5.40
2022-09-12T19:44:04.896Z,7.50
2022-09-12T19:46:33.444Z,5.27
2022-09-12T19:49:00.493Z,8.80
2022-09-12T19:51:27.476Z,4.73
2022-09-12T19:53:54.903Z,4.53
2022-09-12T19:56:22.103Z,4.73
2022-09-12T19:58:55.722Z,3.83
2022-09-12T20:01:28.158Z,5.87
2022-09-12T20:03:56.387Z,6.80
2022-09-12T20:06:23.418Z,5.07
2022-09-12T20:08:51.474Z,3.70
2022-09-12T20:11:19.927Z,3.90
2022-09-12T20:13:47.530Z,3.80
2022-09-12T20:16:26.632Z,4.33
2022-09-12T20:18:58.647Z,4.27
2022-09-12T20:21:36.061Z,3.97
2022-09-12T20:24:14.129Z,6.80
2022-09-12T20:26:41.840Z,3.57
2022-09-12T20:29:08.932Z,5.30
2022-09-12T20:31:37.810Z,5.67
2022-09-12T20:34:05.864Z,3.80
2022-09-12T20:36:33.391Z,8.50
2022-09-12T20:39:02.595Z,4.67
2022-09-12T20:41:32.636Z,3.80
2022-09-12T20:44:00.163Z,4.80
2022-09-12T20:46:28.323Z,8.47
2022-09-12T20:48:55.506Z,6.90
2022-09-12T20:51:23.238Z,5.40
2022-09-12T20:53:54.399Z,5.10
2022-09-12T20:56:22.482Z,4.93
2022-09-12T20:58:49.531Z,5.30
2022-09-12T21:01:17.212Z,8.37
2022-09-12T21:03:45.158Z,5.73
2022-09-12T21:06:13.531Z,6.23
2022-09-12T21:08:40.686Z,5.40
2022-09-12T21:11:07.645Z,5.40
2022-09-12T21:13:34.748Z,4.83
2022-09-12T21:16:22.459Z,4.47
2022-09-12T21:18:59.504Z,6.00
2022-09-12T21:21:26.934Z,4.87
2022-09-12T21:24:00.585Z,5.67
2022-09-12T21:26:27.593Z,7.93
2022-09-12T21:28:54.580Z,5.40
2022-09-12T21:31:25.208Z,5.60
2022-09-12T21:33:52.273Z,6.03
2022-09-12T21:36:19.204Z,7.07
2022-09-12T21:38:46.067Z,6.20
2022-09-12T21:41:15.439Z,5.60
2022-09-12T21:43:42.948Z,8.90
2022-09-12T21:46:10.689Z,6.17
2022-09-12T21:48:38.106Z,7.37
2022-09-12T21:51:05.467Z,6.33
2022-09-12T21:53:32.442Z,4.60
2022-09-12T21:56:07.693Z,6.33
2022-09-12T21:58:34.799Z,4.90
2022-09-12T22:01:01.889Z,6.80
2022-09-12T22:03:29.794Z,5.13
2022-09-12T22:05:58.019Z,6.57
2022-09-12T22:08:24.947Z,8.67
2022-09-12T22:10:51.880Z,6.20
2022-09-12T22:13:18.729Z,5.50
2022-09-12T22:15:51.081Z,14.60
2022-09-12T22:18:18.196Z,8.30
2022-09-12T22:20:45.908Z,5.53
2022-09-12T22:23:31.876Z,7.57
2022-09-12T22:26:00.527Z,6.93
2022-09-12T22:28:27.447Z,6.23
2022-09-12T22:30:54.789Z,9.27
2022-09-12T22:33:21.847Z,6.13
2022-09-12T22:35:48.751Z,6.70
2022-09-12T22:38:15.594Z,13.43
2022-09-12T22:40:42.887Z,8.20
2022-09-12T22:43:09.734Z,7.00
2022-09-12T22:45:36.627Z,7.67
2022-09-12T22:48:07.359Z,8.47
2022-09-12T22:50:36.124Z,6.90
2022-09-12T22:53:03.068Z,7.47
2022-09-12T22:55:29.994Z,7.37
2022-09-12T22:57:56.851Z,7.70
2022-09-12T23:00:23.842Z,7.47
2022-09-12T23:02:50.962Z,11.07
2022-09-12T23:05:17.793Z,8.33
2022-09-12T23:07:44.748Z,8.10
2022-09-12T23:10:12.023Z,8.00
2022-09-12T23:12:38.883Z,7.60
2022-09-12T23:15:06.382Z,6.90
2022-09-12T23:17:35.012Z,7.07
2022-09-12T23:20:02.525Z,8.17
2022-09-12T23:22:29.369Z,7.63
2022-09-12T23:24:56.305Z,6.57
2022-09-12T23:27:23.274Z,8.07
2022-09-12T23:29:52.456Z,7.10
2022-09-12T23:32:21.147Z,6.93
2022-09-12T23:34:48.589Z,6.57
2022-09-12T23:37:15.985Z,7.23
2022-09-12T23:39:42.860Z,7.10
2022-09-12T23:42:09.841Z,7.20
2022-09-12T23:44:36.792Z,6.73
2022-09-12T23:47:03.725Z,9.60
2022-09-12T23:49:30.708Z,7.57
2022-09-12T23:51:57.635Z,6.70
2022-09-12T23:54:25.280Z,6.80
2022-09-12T23:56:52.657Z,7.80
2022-09-12T23:59:19.553Z,6.03
